Time;durP1;ratioP1;P1;durP2;ratioP2;P2;SDS_P1;SDS_P2;PMS_P1;PMS_P2;Temp;Humidity;BMP_temperature;BMP_pressure;BME280_temperature;BME280_humidity;BME280_pressure;Samples;Min_cycle;Max_cycle;Signal;HPM_P1;HPM_P2
2023/10/10 00:01:30;;;;;;;5.13;1.80;;;;;;;16.20;81.86;102036.22;7389643;19;20035;-63
2023/10/10 00:04:01;;;;;;;5.85;1.85;;;;;;;16.23;82.06;102022.63;7387417;19;20025;-63
2023/10/10 00:06:29;;;;;;;5.85;1.65;;;;;;;16.24;81.99;102026.97;7389636;19;20018;-64
2023/10/10 00:08:57;;;;;;;6.50;2.08;;;;;;;16.22;81.92;102033.44;7388683;19;20070;-63
2023/10/10 00:11:27;;;;;;;9.45;2.30;;;;;;;16.20;82.05;102027.34;7393790;19;20036;-63
2023/10/10 00:14:05;;;;;;;7.38;2.17;;;;;;;16.15;82.15;102029.53;7397759;19;20022;-63
2023/10/10 00:16:37;;;;;;;10.80;2.05;;;;;;;16.08;82.57;102023.78;7401701;19;20376;-63
2023/10/10 00:19:28;;;;;;;9.35;2.13;;;;;;;16.06;82.33;102020.38;7399654;19;20018;-64
2023/10/10 00:21:56;;;;;;;9.57;1.98;;;;;;;15.98;82.98;102030.81;7400634;19;20340;-63
2023/10/10 00:24:30;;;;;;;5.90;1.98;;;;;;;16.00;82.89;102027.06;7400752;19;20014;-64
2023/10/10 00:27:06;;;;;;;9.15;2.20;;;;;;;16.03;82.83;102032.16;7400216;19;20019;-64
2023/10/10 00:29:33;;;;;;;5.32;2.08;;;;;;;16.07;82.39;102030.13;7398409;19;20017;-64
2023/10/10 00:32:13;;;;;;;6.97;2.00;;;;;;;16.06;82.65;102026.59;7400352;19;20007;-64
2023/10/10 00:34:42;;;;;;;7.93;2.53;;;;;;;16.02;82.70;102018.91;7400802;19;20022;-64
2023/10/10 00:37:13;;;;;;;8.45;2.20;;;;;;;16.01;82.72;102018.06;7401859;19;20486;-64
2023/10/10 00:39:40;;;;;;;10.82;2.60;;;;;;;16.01;82.79;102022.56;7397623;19;20023;-65
2023/10/10 00:42:19;;;;;;;9.98;2.40;;;;;;;16.02;82.96;102026.91;7402411;19;20025;-64
2023/10/10 00:44:48;;;;;;;8.93;2.17;;;;;;;16.00;83.02;102028.88;7400829;19;20015;-64
2023/10/10 00:47:21;;;;;;;7.85;2.22;;;;;;;16.03;82.87;102034.00;7399928;19;20015;-64
2023/10/10 00:49:50;;;;;;;7.93;2.30;;;;;;;15.98;83.16;102026.31;7400723;19;20025;-64
2023/10/10 00:52:18;;;;;;;10.82;2.35;;;;;;;16.04;82.93;102019.66;7403202;19;20022;-64
2023/10/10 00:54:47;;;;;;;6.50;1.95;;;;;;;16.06;83.03;102021.25;7402235;19;20021;-64
2023/10/10 00:57:16;;;;;;;6.70;2.47;;;;;;;16.03;82.94;102016.13;7401803;19;20014;-64
2023/10/10 00:59:44;;;;;;;8.27;2.47;;;;;;;16.07;82.77;102016.75;7397827;19;20078;-65
2023/10/10 01:02:16;;;;;;;10.57;2.40;;;;;;;16.00;82.90;102018.19;7399856;19;20540;-65
2023/10/10 01:07:21;;;;;;;;;;;;;;;15.85;83.38;102012.19;7400422;19;20340;-64
2023/10/10 01:10:07;;;;;;;9.40;2.58;;;;;;;15.81;84.08;102008.06;7397228;19;19933;-64
2023/10/10 01:12:35;;;;;;;9.95;2.15;;;;;;;15.88;83.66;102011.13;7399771;19;20043;-64
2023/10/10 01:15:12;;;;;;;9.38;2.28;;;;;;;15.93;83.63;102006.25;7400942;19;20085;-64
2023/10/10 01:17:41;;;;;;;7.97;2.30;;;;;;;15.95;83.17;102002.50;7399839;19;20015;-64
2023/10/10 01:20:19;;;;;;;11.23;2.72;;;;;;;15.91;83.36;102006.41;7399226;19;20035;-64
2023/10/10 01:22:48;;;;;;;8.75;2.67;;;;;;;15.90;83.33;101999.31;7399209;19;20029;-64
2023/10/10 01:28:23;;;;;;;6.97;2.38;;;;;;;15.91;83.19;102000.16;7397811;19;20501;-65
2023/10/10 01:30:59;;;;;;;8.45;2.65;;;;;;;15.78;83.72;102011.78;7396802;19;20073;-65
2023/10/10 01:33:36;;;;;;;9.23;2.65;;;;;;;15.81;83.78;102010.72;7400482;19;20014;-64
2023/10/10 01:36:11;;;;;;;6.88;2.33;;;;;;;15.82;83.57;102007.91;7399833;19;20014;-65
2023/10/10 01:38:44;;;;;;;9.18;2.60;;;;;;;15.91;83.66;102000.16;7397924;19;20018;-64
2023/10/10 01:41:31;;;;;;;7.80;2.42;;;;;;;15.94;83.25;102003.47;7399743;19;20022;-65
2023/10/10 01:44:12;;;;;;;9.13;2.47;;;;;;;15.89;83.33;101991.44;7399718;19;20019;-64
2023/10/10 01:46:40;;;;;;;8.85;2.47;;;;;;;15.86;83.44;101997.84;7398289;19;20047;-64
2023/10/10 01:49:21;;;;;;;8.40;2.50;;;;;;;15.88;83.63;101993.25;7397501;19;20014;-64
2023/10/10 01:51:58;;;;;;;8.85;2.67;;;;;;;15.89;83.50;101999.44;7398665;19;20026;-64
2023/10/10 01:54:45;;;;;;;8.20;2.60;;;;;;;15.90;83.59;101996.66;7398651;19;20163;-64
2023/10/10 01:57:21;;;;;;;8.80;2.67;;;;;;;15.96;83.17;101992.69;7400011;19;20542;-64
2023/10/10 01:59:51;;;;;;;6.80;2.58;;;;;;;15.89;83.22;101994.09;7394417;19;20380;-64
2023/10/10 02:02:23;;;;;;;8.80;2.60;;;;;;;15.90;83.45;101998.47;7398698;19;20043;-64
2023/10/10 02:04:56;;;;;;;8.88;2.50;;;;;;;15.87;83.45;101990.69;7396269;19;20297;-64
2023/10/10 02:07:30;;;;;;;7.75;2.60;;;;;;;15.88;83.30;101993.25;7396965;19;20035;-64
2023/10/10 02:10:26;;;;;;;8.35;2.53;;;;;;;15.93;82.98;101990.22;7395782;19;20017;-64
2023/10/10 02:12:47;;;;;;;7.70;2.50;;;;;;;15.91;83.09;101994.81;7397538;19;20484;-64
2023/10/10 02:15:26;;;;;;;7.55;2.50;;;;;;;15.93;83.01;101995.56;7398996;19;20048;-64
2023/10/10 02:17:55;;;;;;;8.98;2.65;;;;;;;15.94;82.95;101994.59;7396378;19;20760;-65
2023/10/10 02:23:01;;;;;;;9.18;2.50;;;;;;;15.95;83.00;101993.63;7398036;19;20471;-64
2023/10/10 02:25:37;;;;;;;8.98;2.55;;;;;;;15.95;82.93;101993.63;7399537;19;20030;-64
2023/10/10 02:30:49;;;;;;;6.60;2.30;;;;;;;15.94;83.02;101994.59;7398200;19;20034;-64
2023/10/10 02:35:55;;;;;;;12.43;3.60;;;;;;;15.97;82.85;101991.69;7396572;19;20035;-64
2023/10/10 02:38:31;;;;;;;7.20;2.95;;;;;;;16.00;82.81;101994.16;7396172;19;20089;-64
2023/10/10 02:43:46;;;;;;;10.23;3.07;;;;;;;15.95;82.73;101996.28;7397252;19;20482;-65
2023/10/10 02:46:20;;;;;;;7.57;2.78;;;;;;;15.93;82.97;101999.09;7396092;19;20317;-64
2023/10/10 02:48:53;;;;;;;8.05;2.40;;;;;;;15.94;82.87;101992.78;7393496;19;20030;-64
2023/10/10 02:51:21;;;;;;;8.88;2.65;;;;;;;15.91;83.04;101989.50;7397989;19;20019;-64
2023/10/10 02:53:50;;;;;;;8.15;2.67;;;;;;;15.93;82.81;101992.91;7397462;19;20759;-64
2023/10/10 02:56:18;;;;;;;7.35;2.85;;;;;;;15.97;82.81;101986.34;7397804;19;20026;-64
2023/10/10 02:58:49;;;;;;;7.47;2.60;;;;;;;15.91;82.86;101984.13;7394958;19;20019;-64
2023/10/10 03:04:22;;;;;;;8.77;2.53;;;;;;;15.87;83.14;101985.34;7393946;19;20043;-64
2023/10/10 03:06:50;;;;;;;7.78;2.47;;;;;;;15.86;83.24;101984.50;7395117;19;20047;-64
2023/10/10 03:12:05;;;;;;;10.57;2.60;;;;;;;15.90;83.19;101985.13;7394916;19;20018;-64
2023/10/10 03:14:34;;;;;;;6.07;2.50;;;;;;;15.98;82.73;101988.06;7395361;19;20027;-64
2023/10/10 03:17:06;;;;;;;6.53;2.10;;;;;;;15.98;82.81;101980.03;7396103;19;20020;-64
2023/10/10 03:19:38;;;;;;;9.07;2.38;;;;;;;15.99;82.60;101977.25;7394425;19;20014;-65
2023/10/10 03:25:20;;;;;;;7.15;2.83;;;;;;;15.97;83.04;101989.03;7395675;19;20456;-65
2023/10/10 03:27:54;;;;;;;6.18;2.50;;;;;;;15.98;83.04;101982.72;7394148;19;20389;-65
2023/10/10 03:30:34;;;;;;;7.25;2.70;;;;;;;15.98;83.04;101966.69;7396116;19;20032;-65
2023/10/10 03:33:09;;;;;;;6.13;2.17;;;;;;;15.99;83.02;101969.25;7395967;19;20445;-64
2023/10/10 03:35:59;;;;;;;7.72;2.70;;;;;;;16.04;82.80;101959.03;7395141;19;20014;-64
2023/10/10 05:23:47;;;;;;;8.57;2.88;;;;;;;16.10;82.71;101947.00;7399076;19;20028;-65
2023/10/10 05:26:19;;;;;;;8.13;2.78;;;;;;;16.13;82.96;101946.78;7397907;19;20011;-65
2023/10/10 05:28:48;;;;;;;7.07;3.00;;;;;;;16.13;82.63;101952.13;7396734;19;20033;-65
2023/10/10 05:31:21;;;;;;;6.07;3.10;;;;;;;16.14;82.57;101956.53;7398075;19;20066;-65
2023/10/10 05:33:50;;;;;;;10.05;3.33;;;;;;;16.16;82.63;101951.88;7400388;19;20019;-65
2023/10/10 05:36:18;;;;;;;8.23;3.08;;;;;;;16.19;82.46;101951.66;7399260;19;20426;-64
2023/10/10 05:38:48;;;;;;;7.70;3.20;;;;;;;16.23;82.48;101949.59;7394681;19;20021;-65
2023/10/10 05:41:18;;;;;;;7.25;3.15;;;;;;;16.28;82.28;101950.91;7396208;19;20405;-64
2023/10/10 05:43:49;;;;;;;9.55;3.22;;;;;;;16.31;81.96;101955.19;7396249;19;20016;-64
2023/10/10 05:46:17;;;;;;;9.60;3.88;;;;;;;16.27;82.25;101956.41;7396473;19;20022;-64
2023/10/10 05:48:46;;;;;;;8.13;3.17;;;;;;;16.29;82.57;101951.78;7393714;19;20030;-64
2023/10/10 05:51:14;;;;;;;8.93;3.40;;;;;;;16.34;82.51;101954.94;7395932;19;20043;-64
2023/10/10 05:53:42;;;;;;;8.65;3.85;;;;;;;16.37;82.21;101951.16;7395985;19;20022;-64
2023/10/10 05:56:12;;;;;;;7.18;3.63;;;;;;;16.40;82.40;101942.91;7394998;19;20035;-64
2023/10/10 05:58:45;;;;;;;7.22;3.40;;;;;;;16.40;82.25;101938.41;7393318;19;20022;-64
2023/10/10 06:01:14;;;;;;;10.95;3.97;;;;;;;16.38;82.56;101940.38;7395587;19;20039;-64
2023/10/10 06:03:44;;;;;;;9.48;4.18;;;;;;;16.43;82.23;101935.50;7393388;19;20081;-64
2023/10/10 06:06:13;;;;;;;9.35;4.20;;;;;;;16.49;82.00;101936.84;7393791;19;20047;-64
2023/10/10 06:08:42;;;;;;;10.52;4.30;;;;;;;16.45;82.25;101930.88;7393758;19;20026;-64
2023/10/10 06:11:13;;;;;;;10.77;4.70;;;;;;;16.45;82.49;101936.25;7393353;19;20015;-64
2023/10/10 06:13:45;;;;;;;11.90;4.40;;;;;;;16.45;82.37;101930.03;7395244;19;20467;-64
2023/10/10 06:16:14;;;;;;;6.93;3.80;;;;;;;16.50;82.13;101931.34;7392397;19;20475;-64
2023/10/10 06:18:46;;;;;;;9.65;3.97;;;;;;;16.52;82.31;101939.25;7397673;19;20041;-64
2023/10/10 06:21:18;;;;;;;7.35;4.20;;;;;;;16.50;82.26;101935.88;7398864;19;20014;-64
2023/10/10 06:23:47;;;;;;;10.88;4.55;;;;;;;16.46;82.47;101935.25;7398000;19;20010;-64
2023/10/10 06:26:18;;;;;;;9.35;4.03;;;;;;;16.51;82.24;101934.88;7398258;19;20030;-64
2023/10/10 06:28:47;;;;;;;10.57;4.18;;;;;;;16.55;82.28;101945.19;7395998;19;20026;-64
2023/10/10 06:31:32;;;;;;;9.43;4.20;;;;;;;16.57;82.07;101945.94;7396954;19;20022;-64
2023/10/10 06:33:59;;;;;;;11.98;4.90;;;;;;;16.57;82.11;101948.63;7397724;19;20019;-64
2023/10/10 06:36:32;;;;;;;10.30;4.30;;;;;;;16.60;82.12;101944.88;7398865;19;20105;-64
2023/10/10 06:44:49;;;;;;;8.25;4.20;;;;;;;16.68;81.98;101938.91;7397664;19;20378;-64
2023/10/10 06:46:58;;;;;;;8.80;4.28;;;;;;;16.65;82.29;101936.47;7396488;19;20015;-64
2023/10/10 06:49:43;;;;;;;9.45;4.90;;;;;;;16.63;82.14;101938.41;7395842;19;20029;-64
2023/10/10 06:52:18;;;;;;;9.27;5.03;;;;;;;16.67;82.27;101939.84;7396915;19;20018;-64
2023/10/10 06:54:53;;;;;;;10.80;4.72;;;;;;;16.73;82.39;101934.00;7396711;19;20043;-64
2023/10/10 06:57:35;;;;;;;9.25;4.53;;;;;;;16.78;82.30;101939.88;7397775;19;20014;-64
2023/10/10 07:02:48;;;;;;;9.75;4.40;;;;;;;16.80;82.14;101933.44;7395054;19;20014;-65
2023/10/10 07:05:18;;;;;;;11.75;4.50;;;;;;;16.85;82.10;101938.41;7397762;19;20007;-64
2023/10/10 07:07:52;;;;;;;9.52;4.25;;;;;;;16.89;81.84;101945.19;7395788;19;20019;-64
2023/10/10 07:10:26;;;;;;;7.80;3.90;;;;;;;16.84;82.10;101950.09;7397194;19;20022;-64
2023/10/10 07:12:57;;;;;;;8.93;5.00;;;;;;;16.83;82.22;101950.19;7396727;19;20022;-65
2023/10/10 07:15:26;;;;;;;9.85;4.45;;;;;;;16.91;82.12;101953.13;7397419;19;20018;-64
2023/10/10 07:18:14;;;;;;;9.63;4.28;;;;;;;16.93;81.64;101957.34;7395949;19;20052;-64
2023/10/10 07:23:42;;;;;;;7.85;4.45;;;;;;;16.92;81.94;101958.34;7396651;19;20014;-64
2023/10/10 07:26:41;;;;;;;9.73;4.80;;;;;;;16.89;82.14;101966.59;7396051;19;20010;-64
2023/10/10 07:29:25;;;;;;;9.48;4.88;;;;;;;16.86;82.36;101957.97;7393962;19;20026;-65
2023/10/10 07:31:46;;;;;;;9.90;4.72;;;;;;;16.91;82.49;101966.50;7395434;19;20032;-65
2023/10/10 07:34:17;;;;;;;12.57;5.13;;;;;;;16.98;82.20;101960.53;7396138;19;20486;-65
2023/10/10 07:36:50;;;;;;;9.73;4.78;;;;;;;17.03;82.03;101962.81;7395323;19;20085;-65
2023/10/10 07:39:33;;;;;;;;;;;;;;;16.92;82.13;101960.16;7394648;19;20022;-64
2023/10/10 07:42:01;;;;;;;9.13;4.75;;;;;;;16.87;82.71;101957.03;7395802;19;19923;-64
2023/10/10 07:44:30;;;;;;;10.38;5.43;;;;;;;16.99;82.04;101962.22;7397648;19;20035;-64
2023/10/10 07:49:40;;;;;;;11.60;5.28;;;;;;;17.15;81.89;101966.31;7392499;19;20019;-64
2023/10/10 07:52:16;;;;;;;11.50;5.93;;;;;;;17.08;82.26;101968.63;7396684;19;20019;-64
2023/10/10 07:54:46;;;;;;;9.43;5.05;;;;;;;17.10;82.27;101969.38;7392714;19;20019;-64
2023/10/10 07:57:26;;;;;;;10.52;5.28;;;;;;;17.17;81.97;101965.22;7394768;19;20025;-63
2023/10/10 08:00:00;;;;;;;9.48;5.40;;;;;;;17.25;81.69;101964.59;7390204;19;20031;-63
2023/10/10 08:05:09;;;;;;;10.25;5.18;;;;;;;17.41;81.45;101980.22;7391319;19;20035;-64
2023/10/10 08:07:37;;;;;;;12.15;6.00;;;;;;;17.37;81.36;101968.06;7391367;19;20031;-64
2023/10/10 08:10:13;;;;;;;11.02;5.30;;;;;;;17.28;82.00;101959.84;7389538;19;20019;-64
2023/10/10 08:12:42;;;;;;;11.30;5.57;;;;;;;17.30;81.78;101951.66;7391465;19;20106;-64
2023/10/10 08:15:19;;;;;;;9.98;5.25;;;;;;;17.28;81.98;101967.88;7391356;19;20011;-64
2023/10/10 08:17:54;;;;;;;9.27;5.35;;;;;;;17.35;81.56;101970.00;7390738;19;20047;-64
2023/10/10 08:23:11;;;;;;;11.35;5.07;;;;;;;17.40;81.68;101968.66;7391231;19;20021;-64
2023/10/10 08:25:39;;;;;;;10.00;4.93;;;;;;;17.43;81.30;101971.06;7391300;19;20010;-64
2023/10/10 08:28:06;;;;;;;10.15;5.28;;;;;;;17.52;81.33;101964.97;7391358;19;20096;-64
2023/10/10 08:30:34;;;;;;;8.88;5.03;;;;;;;17.52;81.41;101950.72;7389383;19;20036;-64
2023/10/10 08:33:02;;;;;;;9.18;5.20;;;;;;;17.58;81.08;101949.34;7392832;19;20376;-64
2023/10/10 08:35:36;;;;;;;10.02;5.18;;;;;;;17.61;81.01;101946.41;7397514;19;20032;-64
2023/10/10 08:38:07;;;;;;;11.45;5.78;;;;;;;17.58;81.16;101935.94;7399320;19;20015;-64
2023/10/10 08:40:36;;;;;;;10.77;5.30;;;;;;;17.59;81.33;101932.28;7398505;19;20027;-64
2023/10/10 08:43:04;;;;;;;12.68;6.15;;;;;;;17.58;81.25;101934.13;7400162;19;20014;-64
2023/10/10 08:45:39;;;;;;;11.80;5.85;;;;;;;17.63;81.40;101928.34;7398979;19;20036;-64
2023/10/10 08:48:15;;;;;;;11.32;6.25;;;;;;;17.56;81.11;101929.88;7397848;19;20043;-64
2023/10/10 08:50:47;;;;;;;11.70;5.95;;;;;;;17.56;81.44;101928.06;7392280;19;20006;-64
2023/10/10 08:53:14;;;;;;;10.50;5.95;;;;;;;17.57;81.00;101928.91;7397782;19;20040;-64
2023/10/10 08:55:42;;;;;;;10.88;6.28;;;;;;;17.62;80.71;101927.53;7398181;19;20023;-64
2023/10/10 08:58:10;;;;;;;9.27;5.47;;;;;;;17.68;80.57;101928.84;7397129;19;20022;-64
2023/10/10 09:00:39;;;;;;;10.30;6.28;;;;;;;17.73;80.25;101923.94;7395394;19;20078;-64
2023/10/10 09:03:07;;;;;;;11.80;6.80;;;;;;;17.74;80.34;101915.78;7397221;19;20496;-64
2023/10/10 09:05:36;;;;;;;11.32;6.85;;;;;;;17.80;80.10;101913.56;7398862;19;20035;-64
2023/10/10 09:08:49;;;;;;;14.52;8.23;;;;;;;17.75;79.54;101914.81;7398238;19;20086;-64
2023/10/10 09:10:57;;;;;;;14.02;8.20;;;;;;;17.76;80.07;101923.72;7396457;19;20043;-65
2023/10/10 09:13:25;;;;;;;14.13;8.13;;;;;;;17.90;79.49;101928.75;7397755;19;20017;-64
2023/10/10 09:15:55;;;;;;;14.23;9.38;;;;;;;18.02;78.79;101924.16;7398104;19;20018;-64
2023/10/10 09:18:25;;;;;;;14.52;9.57;;;;;;;18.13;78.18;101925.91;7397269;19;20030;-64
2023/10/10 09:21:18;;;;;;;16.17;9.43;;;;;;;18.23;78.40;101926.78;7397531;19;20491;-64
2023/10/10 09:24:07;;;;;;;13.65;9.55;;;;;;;18.07;78.70;101916.56;7397825;19;20015;-64
2023/10/10 09:26:36;;;;;;;12.45;9.07;;;;;;;18.14;78.77;101917.72;7397413;19;20018;-64
2023/10/10 09:29:15;;;;;;;13.25;9.18;;;;;;;18.22;78.17;101911.69;7395422;19;20094;-64
2023/10/10 09:31:58;;;;;;;13.68;9.52;;;;;;;18.09;78.17;101911.06;7397477;19;20612;-64
2023/10/10 09:34:35;;;;;;;14.10;8.93;;;;;;;18.09;78.12;101903.88;7395248;19;20082;-64
2023/10/10 09:37:07;;;;;;;14.43;9.63;;;;;;;18.14;78.39;101909.69;7394728;19;20018;-64
2023/10/10 09:39:40;;;;;;;13.70;9.35;;;;;;;18.11;78.43;101901.88;7392470;19;20018;-64
2023/10/10 09:42:44;;;;;;;13.60;9.65;;;;;;;18.18;78.30;101889.66;7396523;19;20021;-64
2023/10/10 09:45:27;;;;;;;15.77;9.68;;;;;;;18.25;78.41;101887.28;7395635;19;20023;-64
2023/10/10 09:47:57;;;;;;;12.48;8.50;;;;;;;18.27;78.00;101894.19;7394338;19;20029;-64
2023/10/10 09:52:59;;;;;;;14.52;9.55;;;;;;;18.51;77.39;101898.38;7395521;19;20094;-64
2023/10/10 10:09:18;;;;;;;12.23;8.77;;;;;;;18.80;76.15;101877.00;7392404;19;20525;-63
2023/10/10 10:12:30;;;;;;;13.30;8.77;;;;;;;18.80;75.96;101866.25;7395702;19;20022;-63
2023/10/10 10:15:08;;;;;;;13.25;9.52;;;;;;;18.65;76.75;101870.31;7395645;19;20014;-63
2023/10/10 10:17:48;;;;;;;16.65;9.07;;;;;;;18.63;77.33;101878.50;7395352;19;20047;-62
2023/10/10 10:20:49;;;;;;;13.07;9.65;;;;;;;18.71;76.60;101885.91;7394028;19;20022;-63
2023/10/10 10:23:27;;;;;;;14.98;10.60;;;;;;;18.56;77.58;101868.47;7395213;19;20014;-62
2023/10/10 10:26:04;;;;;;;14.68;10.23;;;;;;;18.50;78.02;101867.16;7395314;19;20019;-63
2023/10/10 10:28:36;;;;;;;15.60;10.38;;;;;;;18.46;78.71;101850.50;7393074;19;20086;-63
2023/10/10 10:31:05;;;;;;;18.35;10.80;;;;;;;18.46;79.23;101846.97;7392879;19;20479;-63
2023/10/10 10:33:36;;;;;;;15.07;10.90;;;;;;;18.40;79.44;101844.84;7394878;19;20028;-62
2023/10/10 10:36:14;;;;;;;14.43;10.48;;;;;;;18.30;80.08;101843.97;7394466;19;20011;-62
2023/10/10 10:39:19;;;;;;;15.65;10.68;;;;;;;18.26;80.17;101854.97;7393187;19;20102;-62
2023/10/10 10:41:42;;;;;;;13.93;9.98;;;;;;;18.30;80.02;101852.00;7394373;19;20517;-64
2023/10/10 10:44:12;;;;;;;16.45;10.98;;;;;;;18.20;80.71;101860.88;7394874;19;20014;-63
2023/10/10 10:46:41;;;;;;;14.20;10.13;;;;;;;18.24;80.54;101867.66;7394361;19;20018;-63
2023/10/10 10:49:12;;;;;;;16.25;10.82;;;;;;;18.35;80.14;101865.84;7391768;19;20020;-63
2023/10/10 10:51:42;;;;;;;17.35;11.45;;;;;;;18.27;80.60;101843.25;7393613;19;20043;-63
2023/10/10 10:55:18;;;;;;;17.15;12.32;;;;;;;18.29;80.68;101855.69;7394094;19;20074;-63
2023/10/10 10:57:03;;;;;;;17.90;12.63;;;;;;;18.26;81.21;101854.13;7391533;19;20019;-63
2023/10/10 10:59:38;;;;;;;17.13;12.43;;;;;;;18.28;80.86;101852.16;7391623;19;20106;-64
2023/10/10 11:02:16;;;;;;;18.48;12.82;;;;;;;18.27;80.96;101851.28;7394858;19;20036;-64
2023/10/10 11:04:49;;;;;;;19.63;13.02;;;;;;;18.35;80.77;101847.06;7394018;19;20022;-64
2023/10/10 11:07:28;;;;;;;;;;;;;;;18.20;81.06;101841.25;7394184;19;20014;-64
2023/10/10 11:10:08;;;;;;;18.95;14.55;;;;;;;18.16;81.72;101842.50;7391065;19;19923;-64
2023/10/10 11:12:37;;;;;;;21.45;14.88;;;;;;;18.19;81.52;101845.75;7393480;19;20019;-64
2023/10/10 11:15:08;;;;;;;21.27;14.73;;;;;;;18.24;81.15;101831.97;7391687;19;20030;-64
2023/10/10 11:17:38;;;;;;;20.63;14.65;;;;;;;18.31;81.09;101825.03;7392848;19;20015;-64
2023/10/10 11:20:29;;;;;;;23.45;16.15;;;;;;;18.24;81.14;101826.59;7390790;19;20484;-64
2023/10/10 11:26:00;;;;;;;24.63;16.23;;;;;;;18.21;81.73;101822.34;7391654;19;20014;-64
2023/10/10 11:28:37;;;;;;;22.63;16.30;;;;;;;18.23;81.67;101825.72;7391385;19;20044;-64
2023/10/10 11:31:07;;;;;;;24.63;16.48;;;;;;;18.18;82.13;101825.31;7389227;19;20018;-64
2023/10/10 11:33:48;;;;;;;24.17;16.92;;;;;;;18.27;81.32;101823.63;7392203;19;20488;-64
2023/10/10 11:36:20;;;;;;;24.50;17.10;;;;;;;18.39;81.31;101819.00;7390987;19;20018;-64
2023/10/10 11:38:55;;;;;;;25.00;15.98;;;;;;;18.54;81.06;101814.09;7390886;19;20018;-65
2023/10/10 11:41:29;;;;;;;25.45;17.15;;;;;;;18.68;80.56;101803.78;7392424;19;20014;-65
2023/10/10 11:44:03;;;;;;;24.33;15.90;;;;;;;18.74;80.74;101808.66;7392550;19;20011;-66
2023/10/10 11:46:31;;;;;;;26.42;17.15;;;;;;;18.79;80.62;101807.38;7392554;19;20395;-66
2023/10/10 11:49:00;;;;;;;25.70;17.40;;;;;;;18.89;80.33;101800.19;7390074;19;20044;-66
2023/10/10 11:51:35;;;;;;;26.35;16.98;;;;;;;18.89;80.74;101792.13;7391064;19;20078;-65
2023/10/10 11:54:03;;;;;;;26.83;16.83;;;;;;;18.85;81.20;101794.25;7392439;19;20011;-66
2023/10/10 11:56:34;;;;;;;27.90;16.30;;;;;;;18.89;80.61;101784.06;7392431;19;20011;-65
2023/10/10 11:59:13;;;;;;;26.48;16.23;;;;;;;18.90;81.16;101780.41;7389897;19;20014;-64
2023/10/10 12:02:07;;;;;;;29.92;17.23;;;;;;;18.94;81.26;101781.81;7391731;19;20360;-65
2023/10/10 12:04:37;;;;;;;23.03;16.17;;;;;;;18.91;81.59;101772.19;7392007;19;20011;-65
2023/10/10 12:07:05;;;;;;;23.48;16.38;;;;;;;18.98;81.42;101772.47;7391305;19;20483;-64
2023/10/10 12:09:34;;;;;;;24.15;16.35;;;;;;;19.01;81.10;101769.50;7385731;19;20018;-65
2023/10/10 12:12:05;;;;;;;27.58;17.63;;;;;;;19.12;80.46;101769.34;7391952;19;20492;-65
2023/10/10 12:14:32;;;;;;;26.40;16.17;;;;;;;19.06;80.92;101777.13;7392003;19;20029;-65
2023/10/10 12:17:08;;;;;;;23.33;16.55;;;;;;;18.93;80.74;101774.75;7391414;19;20022;-65
2023/10/10 12:19:36;;;;;;;24.85;16.65;;;;;;;18.88;81.12;101767.09;7388437;19;20022;-64
2023/10/10 12:22:08;;;;;;;28.10;17.15;;;;;;;18.98;80.59;101762.56;7391579;19;20021;-64
2023/10/10 12:24:39;;;;;;;27.50;16.75;;;;;;;19.12;80.45;101760.44;7390923;19;20018;-63
2023/10/10 12:27:08;;;;;;;26.98;16.90;;;;;;;19.14;79.86;101764.66;7390752;19;20018;-63
2023/10/10 12:29:39;;;;;;;24.75;17.50;;;;;;;19.16;79.87;101760.00;7387837;19;20048;-63
2023/10/10 12:32:15;;;;;;;26.48;17.38;;;;;;;19.17;79.76;101767.06;7391564;19;20058;-63
2023/10/10 12:34:45;;;;;;;25.10;17.00;;;;;;;19.18;80.09;101767.91;7389980;19;20516;-63
2023/10/10 12:37:16;;;;;;;29.58;18.02;;;;;;;19.21;79.53;101771.16;7392203;19;20019;-65
2023/10/10 12:39:45;;;;;;;25.90;18.40;;;;;;;19.20;80.00;101764.09;7389360;19;20040;-63
2023/10/10 12:42:13;;;;;;;28.73;18.23;;;;;;;19.22;79.88;101758.56;7393111;19;20360;-64
2023/10/10 12:44:47;;;;;;;26.50;17.30;;;;;;;19.18;79.77;101758.00;7392977;19;20029;-64
2023/10/10 12:47:17;;;;;;;26.10;17.80;;;;;;;19.16;80.04;101753.78;7392613;19;20010;-62
2023/10/10 12:49:45;;;;;;;27.50;17.75;;;;;;;19.20;80.42;101752.50;7388830;19;20019;-61
2023/10/10 12:52:16;;;;;;;30.83;19.00;;;;;;;19.16;80.37;101748.44;7391657;19;20507;-63
2023/10/10 12:54:47;;;;;;;28.42;17.77;;;;;;;19.17;80.46;101748.28;7389825;19;20035;-63
2023/10/10 12:57:14;;;;;;;26.92;18.02;;;;;;;19.21;80.54;101744.31;7390344;19;20010;-63
2023/10/10 12:59:51;;;;;;;32.00;18.45;;;;;;;19.30;79.66;101737.19;7387266;19;20010;-63
2023/10/10 13:02:25;;;;;;;28.15;19.10;;;;;;;19.26;80.23;101746.53;7390582;19;20358;-65
2023/10/10 13:04:55;;;;;;;29.08;19.35;;;;;;;19.21;80.44;101741.63;7390815;19;20022;-66
2023/10/10 13:07:24;;;;;;;29.58;19.55;;;;;;;19.19;80.46;101749.00;7390580;19;20089;-63
2023/10/10 13:09:51;;;;;;;30.65;19.17;;;;;;;19.23;80.34;101749.50;7386146;19;20018;-64
2023/10/10 13:12:27;;;;;;;28.33;19.88;;;;;;;19.24;80.07;101743.19;7390776;19;20014;-63
2023/10/10 13:15:16;;;;;;;35.88;20.90;;;;;;;19.24;80.14;101740.50;7390044;19;20492;-64
2023/10/10 13:17:50;;;;;;;34.28;21.10;;;;;;;19.27;79.96;101734.84;7388904;19;20018;-60
2023/10/10 13:20:18;;;;;;;32.83;19.92;;;;;;;19.28;79.67;101733.00;7390041;19;20492;-63
2023/10/10 13:22:50;;;;;;;34.70;21.98;;;;;;;19.33;79.22;101722.63;7397121;19;20121;-62
2023/10/10 13:25:20;;;;;;;39.58;22.88;;;;;;;19.35;79.08;101728.72;7398218;19;20031;-65
2023/10/10 13:27:52;;;;;;;34.75;22.58;;;;;;;19.40;78.84;101718.38;7396750;19;20040;-64
2023/10/10 13:30:20;;;;;;;29.98;20.23;;;;;;;19.45;78.97;101714.25;7395376;19;20484;-64
2023/10/10 13:32:48;;;;;;;37.15;22.85;;;;;;;19.51;78.64;101714.66;7397401;19;20034;-64
2023/10/10 13:35:15;;;;;;;37.22;22.35;;;;;;;19.47;78.70;101719.50;7397252;19;20018;-63
2023/10/10 13:37:43;;;;;;;37.17;21.52;;;;;;;19.48;78.99;101721.16;7394737;19;20043;-63
2023/10/10 13:40:20;;;;;;;36.70;22.10;;;;;;;19.49;79.09;101720.16;7395807;19;20036;-65
2023/10/10 13:42:49;;;;;;;34.25;22.77;;;;;;;19.49;79.13;101718.31;7395126;19;20023;-67
2023/10/10 13:45:21;;;;;;;34.38;23.50;;;;;;;19.51;78.92;101712.81;7397127;19;20010;-65
2023/10/10 13:47:50;;;;;;;36.53;23.33;;;;;;;19.41;79.52;101717.38;7396044;19;20018;-64
2023/10/10 13:50:40;;;;;;;36.15;22.85;;;;;;;19.41;79.46;101718.22;7395130;19;20487;-69
2023/10/10 13:53:14;;;;;;;36.95;23.60;;;;;;;19.43;79.19;101718.94;7396348;19;20049;-66
2023/10/10 13:55:43;;;;;;;36.43;23.37;;;;;;;19.43;79.09;101705.50;7395774;19;20039;-65
2023/10/10 13:58:13;;;;;;;33.75;23.00;;;;;;;19.47;78.97;101690.78;7395638;19;20748;-65
2023/10/10 14:00:43;;;;;;;36.15;22.13;;;;;;;19.47;79.44;101698.00;7394625;19;20020;-66
2023/10/10 14:03:14;;;;;;;39.33;23.65;;;;;;;19.46;79.44;101690.94;7395594;19;20014;-66
2023/10/10 14:06:00;;;;;;;41.13;23.90;;;;;;;19.44;79.38;101687.53;7395918;19;20533;-66
2023/10/10 14:08:30;;;;;;;37.22;24.60;;;;;;;19.35;79.96;101693.81;7392524;19;20090;-67
2023/10/10 14:10:59;;;;;;;39.28;23.70;;;;;;;19.34;80.12;101681.34;7394880;19;20035;-67
2023/10/10 14:13:32;;;;;;;35.78;23.27;;;;;;;19.38;79.93;101688.97;7395749;19;20021;-68
2023/10/10 14:16:01;;;;;;;42.23;24.23;;;;;;;19.30;80.01;101680.78;7394056;19;20022;-68
2023/10/10 14:18:42;;;;;;;39.97;25.10;;;;;;;19.36;80.13;101674.84;7393590;19;20026;-66
2023/10/10 14:21:11;;;;;;;37.33;24.23;;;;;;;19.32;79.79;101677.97;7395463;19;20018;-66
2023/10/10 14:23:40;;;;;;;38.08;24.90;;;;;;;19.36;79.94;101674.84;7395385;19;20028;-66
2023/10/10 14:26:13;;;;;;;41.60;25.58;;;;;;;19.35;80.11;101673.16;7395122;19;20040;-66
2023/10/10 14:28:42;;;;;;;37.55;24.33;;;;;;;19.33;80.38;101660.84;7393016;19;20050;-66
2023/10/10 14:31:12;;;;;;;39.20;25.15;;;;;;;19.33;80.64;101650.13;7394439;19;20015;-66
2023/10/10 14:33:40;;;;;;;39.75;24.40;;;;;;;19.34;80.44;101647.28;7392734;19;20496;-67
2023/10/10 14:36:14;;;;;;;39.08;25.15;;;;;;;19.36;80.24;101642.59;7395161;19;20105;-67